Time;durP1;ratioP1;P1;durP2;ratioP2;P2;SDS_P1;SDS_P2;PMS_P1;PMS_P2;Temp;Humidity;BMP_temperature;BMP_pressure;BME280_temperature;BME280_humidity;BME280_pressure;Samples;Min_cycle;Max_cycle;Signal;HPM_P1;HPM_P2
2022/12/08 00:01:18;;;;;;;;;;;1.90;99.90;;;;;;5053533;28;20396;-79
2022/12/08 00:03:43;;;;;;;;;;;2.00;99.90;;;;;;5052518;28;20007;-79
2022/12/08 00:11:46;;;;;;;;;;;2.10;99.90;;;;;;5022395;28;19925;-77
2022/12/08 00:14:12;;;;;;;;;;;2.60;99.90;;;;;;5052110;28;20374;-76
2022/12/08 00:16:37;;;;;;;;;;;2.30;99.90;;;;;;5038908;28;19920;-76
2022/12/08 00:19:03;;;;;;;;;;;2.40;99.90;;;;;;5049746;28;20259;-76
2022/12/08 00:21:28;;;;;;;;;;;2.30;99.90;;;;;;5052534;28;20323;-78
2022/12/08 00:23:55;;;;;;;;;;;2.40;99.90;;;;;;5049553;28;19927;-77
2022/12/08 00:26:21;;;;;;;;;;;2.20;99.90;;;;;;5062296;28;20393;-76
2022/12/08 00:28:46;;;;;;;;;;;2.30;99.90;;;;;;5050130;28;19924;-77
2022/12/08 00:31:12;;;;;;;;;;;2.30;99.90;;;;;;5061556;28;19921;-76
2022/12/08 00:33:38;;;;;;;;;;;2.20;99.90;;;;;;5052264;28;19924;-76
2022/12/08 00:36:06;;;;;;;;;;;2.30;99.90;;;;;;5052200;28;19921;-76
2022/12/08 00:38:32;;;;;;;;;;;2.20;99.90;;;;;;5042228;28;19921;-76
2022/12/08 00:40:58;;;;;;;;;;;2.30;99.90;;;;;;5052660;28;19943;-76
2022/12/08 00:43:23;;;;;;;;;;;2.30;99.90;;;;;;5051335;28;19925;-75
2022/12/08 00:45:49;;;;;;;;;;;2.30;99.90;;;;;;5052958;28;20015;-76
2022/12/08 00:48:14;;;;;;;;;;;2.50;99.90;;;;;;5036038;28;19929;-76
2022/12/08 00:50:40;;;;;;;;;;;2.20;99.90;;;;;;5052702;28;19932;-77
2022/12/08 00:53:05;;;;;;;;;;;2.70;99.90;;;;;;5051456;28;19931;-77
2022/12/08 00:55:31;;;;;;;;;;;2.20;99.90;;;;;;5034938;28;19921;-77
2022/12/08 00:57:56;;;;;;;;;;;2.10;99.90;;;;;;5035534;28;19927;-76
2022/12/08 01:00:22;;;;;;;;;;;2.10;99.90;;;;;;5052236;28;19925;-76
2022/12/08 01:02:47;;;;;;;;;;;2.10;99.90;;;;;;5051113;28;19928;-76
2022/12/08 01:05:13;;;;;;;;;;;2.10;99.90;;;;;;5052428;28;20007;-76
2022/12/08 01:07:39;;;;;;;;;;;2.20;99.90;;;;;;5035690;28;19932;-76
2022/12/08 01:10:05;;;;;;;;;;;2.20;99.90;;;;;;5052065;28;19921;-76
2022/12/08 01:12:30;;;;;;;;;;;2.10;99.90;;;;;;5026192;28;20322;-77
2022/12/08 01:14:56;;;;;;;;;;;2.10;99.90;;;;;;5032471;28;20023;-76
2022/12/08 01:17:21;;;;;;;;;;;2.40;99.90;;;;;;5015569;28;19968;-76
2022/12/08 01:19:48;;;;;;;;;;;2.10;99.90;;;;;;5031836;28;19952;-76
2022/12/08 01:22:13;;;;;;;;;;;2.10;99.90;;;;;;5038743;28;20290;-77
2022/12/08 01:24:39;;;;;;;;;;;2.10;99.90;;;;;;5071759;28;20023;-76
2022/12/08 01:27:04;;;;;;;;;;;2.20;99.90;;;;;;5055657;28;19925;-75
2022/12/08 01:29:30;;;;;;;;;;;2.70;99.90;;;;;;5071960;28;20295;-76
2022/12/08 01:31:56;;;;;;;;;;;2.20;99.90;;;;;;5054785;28;20019;-76
2022/12/08 01:34:21;;;;;;;;;;;2.20;99.90;;;;;;5051049;28;20173;-76
2022/12/08 01:36:47;;;;;;;;;;;2.30;99.90;;;;;;5030440;28;19921;-76
2022/12/08 01:39:14;;;;;;;;;;;2.40;99.90;;;;;;5051505;28;19920;-76
2022/12/08 01:41:40;;;;;;;;;;;2.30;99.90;;;;;;5034128;28;19925;-76
2022/12/08 01:44:07;;;;;;;;;;;2.40;99.90;;;;;;5050717;28;19921;-76
2022/12/08 01:46:33;;;;;;;;;;;2.50;99.90;;;;;;5037774;28;19925;-77
2022/12/08 01:49:04;;;;;;;;;;;2.40;99.90;;;;;;5048251;28;19928;-77
2022/12/08 01:51:32;;;;;;;;;;;2.50;99.90;;;;;;5051118;28;20023;-78
2022/12/08 01:53:58;;;;;;;;;;;2.50;99.90;;;;;;5050812;28;19921;-77
2022/12/08 01:56:27;;;;;;;;;;;2.50;99.90;;;;;;5038705;28;19928;-76
2022/12/08 01:58:53;;;;;;;;;;;2.50;99.90;;;;;;5047351;28;19928;-77
2022/12/08 02:01:18;;;;;;;;;;;2.50;99.90;;;;;;5050534;28;19925;-76
2022/12/08 02:04:13;;;;;;;;;;;2.60;99.90;;;;;;5049126;28;20012;-79
2022/12/08 02:06:40;;;;;;;;;;;2.50;99.90;;;;;;5023706;28;20306;-78
2022/12/08 02:09:07;;;;;;;;;;;2.40;99.90;;;;;;5033029;28;19931;-76
2022/12/08 02:11:32;;;;;;;;;;;2.20;99.90;;;;;;5050377;28;20429;-77
2022/12/08 02:13:58;;;;;;;;;;;2.20;99.90;;;;;;5047590;28;20015;-77
2022/12/08 02:16:24;;;;;;;;;;;2.10;99.90;;;;;;5038894;28;19921;-77
2022/12/08 02:19:04;;;;;;;;;;;2.10;99.90;;;;;;5046776;28;20059;-76
2022/12/08 02:21:40;;;;;;;;;;;2.00;99.90;;;;;;5050053;28;19921;-76
2022/12/08 02:24:06;;;;;;;;;;;1.90;99.90;;;;;;5050761;28;19931;-76
2022/12/08 02:26:37;;;;;;;;;;;1.90;99.90;;;;;;5056699;28;20531;-76
2022/12/08 02:29:22;;;;;;;;;;;1.90;99.90;;;;;;5068251;28;20263;-76
2022/12/08 02:31:47;;;;;;;;;;;1.90;99.90;;;;;;5070764;28;20374;-77
2022/12/08 02:34:33;;;;;;;;;;;1.80;99.90;;;;;;5069205;28;19974;-77
2022/12/08 02:37:15;;;;;;;;;;;1.80;99.90;;;;;;4993637;28;20015;-77
2022/12/08 02:39:40;;;;;;;;;;;1.80;99.90;;;;;;5023820;28;19964;-76
2022/12/08 02:42:13;;;;;;;;;;;2.10;99.90;;;;;;5029367;28;19968;-77
2022/12/08 02:44:45;;;;;;;;;;;1.80;99.90;;;;;;5031031;28;19921;-77
2022/12/08 02:47:13;;;;;;;;;;;1.80;99.90;;;;;;5013296;28;20481;-76
2022/12/08 02:49:38;;;;;;;;;;;1.80;99.90;;;;;;5012832;28;19975;-77
2022/12/08 02:52:05;;;;;;;;;;;1.80;99.90;;;;;;5029121;28;19921;-76
2022/12/08 02:54:31;;;;;;;;;;;1.80;99.90;;;;;;5029783;28;19944;-77
2022/12/08 02:57:26;;;;;;;;;;;1.80;99.90;;;;;;5014344;28;20351;-77
2022/12/08 03:00:04;;;;;;;;;;;1.80;99.90;;;;;;5011541;28;19996;-76
2022/12/08 03:02:48;;;;;;;;;;;1.70;99.90;;;;;;5029077;28;19921;-77
2022/12/08 03:05:29;;;;;;;;;;;1.70;99.90;;;;;;5029876;28;20271;-77
2022/12/08 03:07:55;;;;;;;;;;;1.70;99.90;;;;;;5014134;28;20382;-77
2022/12/08 03:10:28;;;;;;;;;;;1.80;99.90;;;;;;5049048;28;19991;-77
2022/12/08 03:13:01;;;;;;;;;;;1.80;99.90;;;;;;5038569;28;19928;-77
2022/12/08 03:15:28;;;;;;;;;;;1.80;99.90;;;;;;5029788;28;20019;-76
2022/12/08 03:17:56;;;;;;;;;;;2.00;99.90;;;;;;5013741;28;20031;-77
2022/12/08 03:20:23;;;;;;;;;;;2.00;99.90;;;;;;5029801;28;19921;-77
2022/12/08 03:22:51;;;;;;;;;;;2.10;99.90;;;;;;5052629;28;19920;-77
2022/12/08 03:25:19;;;;;;;;;;;2.10;99.90;;;;;;5049333;28;19925;-76
2022/12/08 03:27:45;;;;;;;;;;;2.10;99.90;;;;;;5033526;28;19921;-76
2022/12/08 03:30:11;;;;;;;;;;;2.10;99.90;;;;;;5049390;28;20041;-76
2022/12/08 03:32:43;;;;;;;;;;;2.10;99.90;;;;;;5048736;28;19928;-76
2022/12/08 03:35:10;;;;;;;;;;;2.10;99.90;;;;;;5049805;28;19921;-77
2022/12/08 03:37:37;;;;;;;;;;;2.00;99.90;;;;;;5034061;28;20361;-77
2022/12/08 03:40:09;;;;;;;;;;;2.00;99.90;;;;;;5049763;28;19921;-76
2022/12/08 03:42:34;;;;;;;;;;;2.00;99.90;;;;;;5048534;28;19928;-76
2022/12/08 03:45:00;;;;;;;;;;;2.30;99.90;;;;;;5050266;28;19921;-77
2022/12/08 03:47:25;;;;;;;;;;;2.00;99.90;;;;;;4995480;28;20406;-77
2022/12/08 03:49:51;;;;;;;;;;;2.00;99.90;;;;;;5009281;28;19922;-78
2022/12/08 03:52:17;;;;;;;;;;;2.20;99.90;;;;;;5009457;28;19933;-77
2022/12/08 03:54:42;;;;;;;;;;;1.90;99.90;;;;;;5009793;28;19932;-77
2022/12/08 03:57:08;;;;;;;;;;;2.00;99.90;;;;;;4994630;28;19928;-77
2022/12/08 03:59:33;;;;;;;;;;;2.20;99.90;;;;;;5009540;28;19969;-77
2022/12/08 04:01:59;;;;;;;;;;;1.90;99.90;;;;;;5009798;28;19925;-77
2022/12/08 04:04:24;;;;;;;;;;;2.00;99.90;;;;;;5009064;28;19967;-76
2022/12/08 04:06:50;;;;;;;;;;;2.00;99.90;;;;;;4994779;28;20248;-77
2022/12/08 04:09:16;;;;;;;;;;;1.90;99.90;;;;;;5010647;28;19921;-77
2022/12/08 04:11:41;;;;;;;;;;;2.00;99.90;;;;;;5029936;28;19972;-78
2022/12/08 04:14:07;;;;;;;;;;;2.00;99.90;;;;;;5026657;28;19929;-76
2022/12/08 04:16:32;;;;;;;;;;;2.80;99.90;;;;;;5016882;28;20939;-77
2022/12/08 04:18:58;;;;;;;;;;;2.00;99.90;;;;;;5008226;28;19921;-77
2022/12/08 04:21:23;;;;;;;;;;;2.00;99.90;;;;;;5028802;28;19929;-76
2022/12/08 04:23:49;;;;;;;;;;;2.00;99.90;;;;;;5016713;28;20220;-77
2022/12/08 04:26:15;;;;;;;;;;;2.00;99.90;;;;;;5018979;28;19968;-77
2022/12/08 04:28:41;;;;;;;;;;;2.00;99.90;;;;;;5024531;28;20622;-77
2022/12/08 04:31:06;;;;;;;;;;;2.00;99.90;;;;;;5033184;28;19929;-78
2022/12/08 04:33:32;;;;;;;;;;;2.00;99.90;;;;;;5031791;28;19927;-77
2022/12/08 04:35:57;;;;;;;;;;;2.00;99.90;;;;;;5032452;28;20009;-77
2022/12/08 04:38:23;;;;;;;;;;;1.90;99.90;;;;;;5017250;28;19972;-76
2022/12/08 04:40:49;;;;;;;;;;;1.90;99.90;;;;;;5032677;28;20015;-79
2022/12/08 04:43:14;;;;;;;;;;;1.90;99.90;;;;;;5031644;28;19965;-77
2022/12/08 04:45:41;;;;;;;;;;;1.90;99.90;;;;;;5033000;28;19944;-76
2022/12/08 04:48:06;;;;;;;;;;;1.90;99.90;;;;;;5016384;28;20008;-76
2022/12/08 04:50:32;;;;;;;;;;;1.90;99.90;;;;;;5019360;28;20438;-76
2022/12/08 04:52:57;;;;;;;;;;;1.90;99.90;;;;;;5031775;28;19921;-77
2022/12/08 04:55:23;;;;;;;;;;;1.90;99.90;;;;;;5031828;28;20394;-76
2022/12/08 04:57:48;;;;;;;;;;;1.90;99.90;;;;;;5016555;28;20363;-76
2022/12/08 05:00:14;;;;;;;;;;;1.90;99.90;;;;;;5032539;28;19921;-76
2022/12/08 05:02:40;;;;;;;;;;;1.80;99.90;;;;;;5031814;28;19921;-76
2022/12/08 05:05:05;;;;;;;;;;;1.80;99.90;;;;;;5032441;28;20040;-76
2022/12/08 05:07:31;;;;;;;;;;;1.80;99.90;;;;;;5015134;28;19925;-76
2022/12/08 05:09:57;;;;;;;;;;;1.80;99.90;;;;;;5032286;28;19921;-77
2022/12/08 05:12:22;;;;;;;;;;;2.00;99.90;;;;;;5028059;28;19977;-77
2022/12/08 05:14:48;;;;;;;;;;;2.00;99.90;;;;;;5032486;28;19921;-77
2022/12/08 05:17:14;;;;;;;;;;;1.90;99.90;;;;;;5015129;28;19996;-77
2022/12/08 05:19:40;;;;;;;;;;;2.20;99.90;;;;;;5027199;28;19921;-79
2022/12/08 05:22:05;;;;;;;;;;;1.80;99.90;;;;;;5034386;28;19951;-76
2022/12/08 05:24:31;;;;;;;;;;;2.00;99.90;;;;;;5038500;28;19921;-76
2022/12/08 05:26:56;;;;;;;;;;;1.60;99.90;;;;;;5017213;28;20282;-77
2022/12/08 05:29:22;;;;;;;;;;;1.60;99.90;;;;;;5028865;28;20291;-77
2022/12/08 05:31:47;;;;;;;;;;;1.60;99.90;;;;;;5022636;28;20304;-76
2022/12/08 05:34:13;;;;;;;;;;;1.90;99.90;;;;;;5015658;28;19927;-76
2022/12/08 05:36:39;;;;;;;;;;;1.50;99.90;;;;;;5008988;28;20255;-76
2022/12/08 05:39:04;;;;;;;;;;;1.50;99.90;;;;;;5028819;28;19944;-76
2022/12/08 05:41:30;;;;;;;;;;;1.50;99.90;;;;;;5028198;28;19928;-76
2022/12/08 05:43:55;;;;;;;;;;;1.40;99.90;;;;;;5026015;28;19929;-77
2022/12/08 05:46:21;;;;;;;;;;;1.50;99.90;;;;;;5020186;28;19921;-77
2022/12/08 05:48:46;;;;;;;;;;;1.40;99.90;;;;;;5022708;28;19932;-79
2022/12/08 05:51:19;;;;;;;;;;;1.40;99.90;;;;;;5015677;28;19977;-76
2022/12/08 05:53:45;;;;;;;;;;;1.50;99.90;;;;;;5027498;28;19921;-77
2022/12/08 05:56:11;;;;;;;;;;;1.40;99.90;;;;;;5022363;28;20020;-76
2022/12/08 05:58:37;;;;;;;;;;;1.40;99.90;;;;;;5020370;28;20241;-78
2022/12/08 06:01:02;;;;;;;;;;;1.40;99.90;;;;;;5030018;28;19932;-76
2022/12/08 06:03:28;;;;;;;;;;;1.40;99.90;;;;;;5028627;28;19928;-76
2022/12/08 06:05:53;;;;;;;;;;;1.30;99.90;;;;;;5029563;28;20060;-77
2022/12/08 06:08:19;;;;;;;;;;;1.40;99.90;;;;;;5015156;28;20020;-76
2022/12/08 06:10:44;;;;;;;;;;;1.20;99.90;;;;;;5003861;28;19940;-76
2022/12/08 06:13:10;;;;;;;;;;;1.20;99.90;;;;;;5008909;28;20290;-77
2022/12/08 06:15:37;;;;;;;;;;;1.20;99.90;;;;;;4982920;28;19929;-76
2022/12/08 06:18:03;;;;;;;;;;;1.10;99.90;;;;;;5011354;28;19928;-77
2022/12/08 06:20:28;;;;;;;;;;;1.10;99.90;;;;;;5025480;28;20287;-77
2022/12/08 06:22:54;;;;;;;;;;;1.00;99.90;;;;;;4999817;28;19925;-77
2022/12/08 06:25:20;;;;;;;;;;;1.00;99.90;;;;;;5026789;28;19951;-79
2022/12/08 06:27:46;;;;;;;;;;;0.90;99.90;;;;;;4976890;28;19932;-76
2022/12/08 06:30:11;;;;;;;;;;;0.90;99.90;;;;;;5006718;28;19929;-77
2022/12/08 06:32:37;;;;;;;;;;;0.90;99.90;;;;;;5026283;28;20009;-76
2022/12/08 06:35:03;;;;;;;;;;;0.80;99.90;;;;;;5026546;28;20291;-76
2022/12/08 06:37:28;;;;;;;;;;;0.80;99.90;;;;;;5023036;28;19921;-80
2022/12/08 06:39:54;;;;;;;;;;;0.90;99.90;;;;;;5037945;28;20030;-79
2022/12/08 06:45:04;;;;;;;;;;;0.90;99.90;;;;;;5045300;28;19927;-77
2022/12/08 06:47:29;;;;;;;;;;;0.90;99.90;;;;;;5028132;28;19925;-77
2022/12/08 06:49:55;;;;;;;;;;;0.90;99.90;;;;;;5035293;28;20330;-77
2022/12/08 06:52:20;;;;;;;;;;;0.90;99.90;;;;;;5058042;28;20028;-77
2022/12/08 06:54:46;;;;;;;;;;;0.90;99.90;;;;;;5046599;28;19928;-78
2022/12/08 06:57:11;;;;;;;;;;;1.10;99.90;;;;;;5029997;28;19921;-77
2022/12/08 06:59:37;;;;;;;;;;;0.90;99.90;;;;;;5045628;28;19929;-77
2022/12/08 07:02:03;;;;;;;;;;;0.90;99.90;;;;;;5028522;28;19932;-77
2022/12/08 07:04:28;;;;;;;;;;;0.80;99.90;;;;;;5044897;28;19925;-77
2022/12/08 07:06:54;;;;;;;;;;;0.80;99.90;;;;;;5039866;28;19932;-77
2022/12/08 07:09:19;;;;;;;;;;;0.80;99.90;;;;;;5051578;28;19928;-77
2022/12/08 07:11:45;;;;;;;;;;;0.80;99.90;;;;;;5058505;28;19925;-77
2022/12/08 07:14:11;;;;;;;;;;;0.70;99.90;;;;;;5037871;28;19925;-77
2022/12/08 07:16:38;;;;;;;;;;;0.80;99.90;;;;;;5037151;28;19968;-77
2022/12/08 07:19:04;;;;;;;;;;;1.20;99.90;;;;;;5035778;28;19931;-78
2022/12/08 07:21:29;;;;;;;;;;;0.80;99.90;;;;;;5029481;28;19983;-77
2022/12/08 07:23:55;;;;;;;;;;;0.80;99.90;;;;;;5050213;28;19933;-76
2022/12/08 07:26:20;;;;;;;;;;;0.80;99.90;;;;;;5035898;28;20270;-79
2022/12/08 07:28:46;;;;;;;;;;;0.70;99.90;;;;;;5044642;28;20275;-79
2022/12/08 07:31:19;;;;;;;;;;;0.70;99.90;;;;;;5061290;28;20011;-77
2022/12/08 07:33:44;;;;;;;;;;;0.70;99.90;;;;;;5051951;28;20367;-77
2022/12/08 07:36:10;;;;;;;;;;;0.60;99.90;;;;;;5047785;28;19921;-77
2022/12/08 07:38:36;;;;;;;;;;;0.60;99.90;;;;;;5041663;28;19925;-77
2022/12/08 07:41:01;;;;;;;;;;;0.60;99.90;;;;;;5049574;28;20347;-79
2022/12/08 07:43:27;;;;;;;;;;;0.60;99.90;;;;;;5049285;28;19924;-78
2022/12/08 07:45:53;;;;;;;;;;;0.60;99.90;;;;;;5049377;28;19920;-80
2022/12/08 07:48:18;;;;;;;;;;;0.60;99.90;;;;;;5033352;28;19931;-78
2022/12/08 07:50:44;;;;;;;;;;;0.70;99.90;;;;;;5049826;28;20398;-78
2022/12/08 07:53:10;;;;;;;;;;;0.50;99.90;;;;;;5030912;28;19986;-77
2022/12/08 07:55:39;;;;;;;;;;;0.50;99.90;;;;;;5049320;28;19928;-77
2022/12/08 07:58:05;;;;;;;;;;;0.50;99.90;;;;;;5007854;28;19989;-78
2022/12/08 08:00:30;;;;;;;;;;;0.50;99.90;;;;;;5007520;28;20375;-78
2022/12/08 08:02:56;;;;;;;;;;;0.50;99.90;;;;;;5047577;28;19979;-78
2022/12/08 08:05:22;;;;;;;;;;;0.40;99.90;;;;;;5048993;28;19925;-77
2022/12/08 08:07:47;;;;;;;;;;;0.40;99.90;;;;;;5017372;28;20043;-77
2022/12/08 08:10:13;;;;;;;;;;;0.40;99.90;;;;;;5025796;28;19933;-78
2022/12/08 08:12:38;;;;;;;;;;;0.60;99.90;;;;;;5029802;28;20018;-79
2022/12/08 08:15:06;;;;;;;;;;;0.70;99.90;;;;;;5035456;28;19932;-77
2022/12/08 08:17:32;;;;;;;;;;;0.70;99.90;;;;;;5000667;28;19932;-77
2022/12/08 08:19:58;;;;;;;;;;;0.70;99.90;;;;;;5033148;28;19932;-77
2022/12/08 08:22:24;;;;;;;;;;;0.80;99.90;;;;;;5035033;28;19931;-78
2022/12/08 08:24:49;;;;;;;;;;;0.90;99.90;;;;;;5034026;28;19933;-81
2022/12/08 08:27:15;;;;;;;;;;;0.90;99.90;;;;;;5014937;28;20401;-77
2022/12/08 08:29:40;;;;;;;;;;;0.90;99.90;;;;;;5031275;28;20250;-79
2022/12/08 08:32:06;;;;;;;;;;;0.90;99.90;;;;;;5031387;28;20397;-76
2022/12/08 08:34:31;;;;;;;;;;;0.80;99.90;;;;;;5031757;28;19932;-78
2022/12/08 08:36:57;;;;;;;;;;;0.80;99.90;;;;;;5019287;28;19924;-78
2022/12/08 08:39:23;;;;;;;;;;;0.90;99.90;;;;;;5041011;28;19939;-77
2022/12/08 08:41:48;;;;;;;;;;;0.90;99.90;;;;;;5049229;28;19920;-78
2022/12/08 08:44:14;;;;;;;;;;;1.50;99.90;;;;;;5043106;28;19928;-80
2022/12/08 08:46:40;;;;;;;;;;;1.00;99.90;;;;;;5022421;28;19943;-81
2022/12/08 08:49:06;;;;;;;;;;;1.10;99.90;;;;;;5025833;28;19956;-77
2022/12/08 08:51:33;;;;;;;;;;;1.40;99.90;;;;;;5021098;28;20205;-78
2022/12/08 08:53:59;;;;;;;;;;;1.20;99.90;;;;;;5040829;28;19932;-80
2022/12/08 08:56:24;;;;;;;;;;;1.30;99.90;;;;;;5037713;28;19920;-78
2022/12/08 08:58:51;;;;;;;;;;;1.40;99.90;;;;;;5037352;28;19951;-80
2022/12/08 09:01:18;;;;;;;;;;;1.50;99.90;;;;;;5044249;28;20018;-78
2022/12/08 09:03:44;;;;;;;;;;;1.60;99.90;;;;;;5041551;28;20015;-80
2022/12/08 09:06:10;;;;;;;;;;;1.60;99.90;;;;;;4998460;28;19945;-82
2022/12/08 09:08:35;;;;;;;;;;;1.90;99.90;;;;;;5019604;28;19932;-81
2022/12/08 09:11:01;;;;;;;;;;;1.70;99.90;;;;;;5028282;28;19932;-78
2022/12/08 09:13:26;;;;;;;;;;;2.00;99.90;;;;;;5028755;28;19932;-79
2022/12/08 09:15:52;;;;;;;;;;;1.80;99.90;;;;;;5048392;28;19920;-77
2022/12/08 09:18:17;;;;;;;;;;;1.80;99.90;;;;;;5028431;28;19936;-79
2022/12/08 09:20:43;;;;;;;;;;;1.80;99.90;;;;;;5047525;28;19933;-80
2022/12/08 09:23:08;;;;;;;;;;;1.80;99.90;;;;;;5042584;28;20050;-81
2022/12/08 09:25:34;;;;;;;;;;;1.80;99.90;;;;;;5045743;28;20274;-78
2022/12/08 09:27:59;;;;;;;;;;;1.70;99.90;;;;;;5009986;28;19937;-78
2022/12/08 09:30:25;;;;;;;;;;;1.80;99.90;;;;;;5044218;28;19932;-77
2022/12/08 09:32:50;;;;;;;;;;;1.80;99.90;;;;;;5043502;28;19967;-78
2022/12/08 09:35:16;;;;;;;;;;;1.80;99.90;;;;;;5043173;28;19924;-78
2022/12/08 09:37:42;;;;;;;;;;;1.90;99.90;;;;;;5031386;28;19974;-80
2022/12/08 09:40:10;;;;;;;;;;;1.90;99.90;;;;;;5045061;28;20605;-77
2022/12/08 09:42:38;;;;;;;;;;;2.00;99.90;;;;;;5043204;28;20343;-77
2022/12/08 09:45:07;;;;;;;;;;;2.00;99.90;;;;;;5043839;28;20337;-79
2022/12/08 09:47:39;;;;;;;;;;;2.00;99.90;;;;;;4992221;28;19968;-81
2022/12/08 09:50:21;;;;;;;;;;;2.00;99.90;;;;;;5018569;28;19932;-77
2022/12/08 09:53:07;;;;;;;;;;;1.90;99.90;;;;;;5022029;28;20406;-81
2022/12/08 09:55:39;;;;;;;;;;;1.90;99.90;;;;;;5017180;28;19933;-79
2022/12/08 09:58:09;;;;;;;;;;;1.90;99.90;;;;;;4996192;28;19921;-78
2022/12/08 10:00:34;;;;;;;;;;;2.10;99.90;;;;;;5015463;28;19933;-78
2022/12/08 10:03:00;;;;;;;;;;;2.00;99.90;;;;;;5015484;28;19978;-82
2022/12/08 10:05:27;;;;;;;;;;;2.00;99.90;;;;;;5033318;28;19925;-78
2022/12/08 10:08:10;;;;;;;;;;;2.00;99.90;;;;;;4997354;28;20276;-79
2022/12/08 10:10:46;;;;;;;;;;;2.10;99.90;;;;;;5023048;28;19932;-81
2022/12/08 10:13:28;;;;;;;;;;;2.10;99.90;;;;;;5042672;28;20364;-80
2022/12/08 10:16:12;;;;;;;;;;;2.00;99.90;;;;;;5044072;28;20760;-81
2022/12/08 10:18:38;;;;;;;;;;;2.00;99.90;;;;;;5033787;28;19925;-79
2022/12/08 10:21:10;;;;;;;;;;;2.00;99.90;;;;;;5044399;28;20807;-78
2022/12/08 10:23:37;;;;;;;;;;;2.10;99.90;;;;;;5040878;28;21221;-78
2022/12/08 10:26:04;;;;;;;;;;;2.20;99.90;;;;;;5041997;28;19932;-77
2022/12/08 10:28:30;;;;;;;;;;;2.30;99.90;;;;;;5022740;28;19982;-77
2022/12/08 10:30:56;;;;;;;;;;;2.40;99.90;;;;;;5040577;28;20599;-78
2022/12/08 10:33:22;;;;;;;;;;;2.70;99.90;;;;;;5045605;28;20011;-78
2022/12/08 10:35:58;;;;;;;;;;;2.70;99.90;;;;;;5045218;28;19986;-78
2022/12/08 10:38:37;;;;;;;;;;;3.10;99.90;;;;;;5025278;28;20397;-78
2022/12/08 10:41:10;;;;;;;;;;;2.80;99.90;;;;;;5037326;28;19920;-80
2022/12/08 10:43:38;;;;;;;;;;;2.80;99.90;;;;;;5034545;28;19928;-81
2022/12/08 10:46:20;;;;;;;;;;;2.90;99.90;;;;;;5039092;28;19936;-81
2022/12/08 10:48:47;;;;;;;;;;;2.70;99.90;;;;;;5027553;28;19924;-79
2022/12/08 10:51:24;;;;;;;;;;;2.80;99.90;;;;;;5040519;28;20390;-80
2022/12/08 10:53:49;;;;;;;;;;;2.80;99.90;;;;;;5041509;28;20260;-80
2022/12/08 10:56:15;;;;;;;;;;;3.00;99.90;;;;;;5024313;28;19970;-82
2022/12/08 10:58:42;;;;;;;;;;;3.10;99.90;;;;;;5038534;28;19920;-78
2022/12/08 11:01:11;;;;;;;;;;;3.20;99.90;;;;;;5041321;28;19932;-81
2022/12/08 11:03:52;;;;;;;;;;;3.20;99.90;;;;;;5034981;28;21114;-82
2022/12/08 11:06:22;;;;;;;;;;;3.50;99.90;;;;;;5032284;28;19932;-82
2022/12/08 11:08:54;;;;;;;;;;;3.50;99.90;;;;;;5034862;28;19933;-82
2022/12/08 11:11:21;;;;;;;;;;;3.90;99.90;;;;;;5024844;28;20144;-79
2022/12/08 11:13:47;;;;;;;;;;;5.10;99.90;;;;;;5024950;28;19944;-77
2022/12/08 11:16:13;;;;;;;;;;;6.10;99.90;;;;;;5016927;28;19933;-82
2022/12/08 11:18:40;;;;;;;;;;;6.30;99.90;;;;;;5036812;28;19932;-79
2022/12/08 11:21:11;;;;;;;;;;;5.90;99.90;;;;;;5007292;28;20414;-78
2022/12/08 11:23:39;;;;;;;;;;;5.60;99.90;;;;;;5027839;28;21132;-79
2022/12/08 11:26:31;;;;;;;;;;;5.10;99.90;;;;;;5044799;28;19966;-77
2022/12/08 11:28:57;;;;;;;;;;;4.50;99.90;;;;;;5034399;28;19932;-78
2022/12/08 11:31:31;;;;;;;;;;;4.30;99.90;;;;;;5043467;28;21236;-79
2022/12/08 11:33:57;;;;;;;;;;;3.70;99.90;;;;;;5039675;28;19933;-80
2022/12/08 11:36:25;;;;;;;;;;;3.40;99.90;;;;;;5030798;28;19955;-79
2022/12/08 11:38:52;;;;;;;;;;;3.40;99.90;;;;;;5031307;28;20370;-78
2022/12/08 11:41:22;;;;;;;;;;;3.30;99.90;;;;;;5030867;28;20269;-81
2022/12/08 11:44:06;;;;;;;;;;;3.20;99.90;;;;;;5030306;28;19983;-80
2022/12/08 11:46:35;;;;;;;;;;;3.00;99.90;;;;;;5019679;28;19921;-78
2022/12/08 11:49:07;;;;;;;;;;;2.90;99.90;;;;;;5030783;28;20429;-78
2022/12/08 11:51:42;;;;;;;;;;;2.80;99.90;;;;;;5029317;28;19925;-80
2022/12/08 11:54:29;;;;;;;;;;;2.80;99.90;;;;;;5034592;28;19932;-81
2022/12/08 11:56:55;;;;;;;;;;;2.90;99.90;;;;;;5016066;28;19968;-78
2022/12/08 11:59:31;;;;;;;;;;;3.00;99.90;;;;;;5030016;28;20719;-81
2022/12/08 12:01:58;;;;;;;;;;;3.00;99.90;;;;;;5033974;28;20075;-78
2022/12/08 12:04:23;;;;;;;;;;;3.10;99.90;;;;;;5031424;28;20287;-78
2022/12/08 12:06:58;;;;;;;;;;;3.20;99.90;;;;;;5015625;28;20425;-79
2022/12/08 12:09:27;;;;;;;;;;;3.10;99.90;;;;;;5030455;28;19933;-78
2022/12/08 12:12:18;;;;;;;;;;;3.10;99.90;;;;;;5032040;28;19982;-80
2022/12/08 12:15:01;;;;;;;;;;;3.10;99.90;;;;;;5029108;28;20287;-78
2022/12/08 12:17:32;;;;;;;;;;;3.40;99.90;;;;;;5015621;28;20019;-81
2022/12/08 12:19:59;;;;;;;;;;;3.90;99.90;;;;;;5034418;28;19932;-82
2022/12/08 12:22:27;;;;;;;;;;;4.50;99.90;;;;;;5036686;28;19939;-80
2022/12/08 12:24:53;;;;;;;;;;;4.50;99.90;;;;;;5034344;28;20324;-79
2022/12/08 12:27:22;;;;;;;;;;;4.60;99.90;;;;;;5015647;28;20385;-81
2022/12/08 12:29:52;;;;;;;;;;;4.60;99.90;;;;;;5019551;28;19937;-81
2022/12/08 12:32:17;;;;;;;;;;;4.80;99.90;;;;;;5031525;28;20287;-81
2022/12/08 12:34:47;;;;;;;;;;;5.00;99.90;;;;;;5031294;28;19928;-82
2022/12/08 12:37:16;;;;;;;;;;;5.20;99.90;;;;;;5010597;28;19932;-81
2022/12/08 12:39:46;;;;;;;;;;;5.40;99.90;;;;;;5046171;28;19990;-78
2022/12/08 12:42:31;;;;;;;;;;;5.50;99.90;;;;;;5047438;28;19932;-78
2022/12/08 12:45:10;;;;;;;;;;;5.70;99.90;;;;;;5029699;28;19940;-81
2022/12/08 12:47:47;;;;;;;;;;;5.70;99.90;;;;;;5032556;28;19946;-78
2022/12/08 12:50:14;;;;;;;;;;;5.50;99.90;;;;;;5047807;28;20287;-81
2022/12/08 12:52:39;;;;;;;;;;;5.40;99.90;;;;;;5048381;28;20301;-80
2022/12/08 12:55:08;;;;;;;;;;;5.20;99.90;;;;;;5048260;28;19932;-79
2022/12/08 12:57:38;;;;;;;;;;;5.10;99.90;;;;;;5031895;28;19924;-78
2022/12/08 13:00:03;;;;;;;;;;;5.00;99.90;;;;;;5046316;28;19932;-78
2022/12/08 13:02:35;;;;;;;;;;;5.10;99.90;;;;;;5046811;28;19967;-80
2022/12/08 13:05:19;;;;;;;;;;;4.80;99.90;;;;;;5049826;28;20022;-80
2022/12/08 13:07:45;;;;;;;;;;;4.70;99.90;;;;;;5031575;28;19968;-79
2022/12/08 13:10:10;;;;;;;;;;;4.60;99.90;;;;;;5046829;28;20055;-81
2022/12/08 13:12:36;;;;;;;;;;;4.40;99.90;;;;;;5047324;28;19927;-78
2022/12/08 13:15:03;;;;;;;;;;;4.20;99.90;;;;;;5047481;28;19963;-79
2022/12/08 13:17:30;;;;;;;;;;;4.10;99.90;;;;;;5018796;28;20408;-79
2022/12/08 13:19:58;;;;;;;;;;;4.00;99.90;;;;;;5015952;28;20355;-80
2022/12/08 13:22:42;;;;;;;;;;;3.90;99.90;;;;;;5039772;28;19932;-78
2022/12/08 13:25:26;;;;;;;;;;;3.90;99.90;;;;;;5044677;28;19932;-77
2022/12/08 13:27:52;;;;;;;;;;;3.80;99.90;;;;;;5030339;28;20370;-79
2022/12/08 13:30:50;;;;;;;;;;;3.80;99.90;;;;;;5040080;28;19921;-78
2022/12/08 13:33:25;;;;;;;;;;;3.70;99.90;;;;;;5005256;28;19956;-81
2022/12/08 13:36:10;;;;;;;;;;;3.80;99.90;;;;;;5049650;28;19936;-78
2022/12/08 13:38:37;;;;;;;;;;;3.90;99.90;;;;;;5025754;28;20025;-79
2022/12/08 13:41:05;;;;;;;;;;;3.80;99.90;;;;;;5040372;28;20417;-78
2022/12/08 13:43:41;;;;;;;;;;;3.80;99.90;;;;;;5031385;28;19936;-82
2022/12/08 13:46:08;;;;;;;;;;;3.80;99.90;;;;;;5012988;28;20353;-81
2022/12/08 13:48:39;;;;;;;;;;;3.70;99.90;;;;;;4995516;28;20185;-82
2022/12/08 13:51:05;;;;;;;;;;;3.60;99.90;;;;;;5016870;28;19934;-82
2022/12/08 13:53:37;;;;;;;;;;;3.50;99.90;;;;;;5025257;28;19921;-81
2022/12/08 13:56:03;;;;;;;;;;;3.40;99.90;;;;;;5003926;28;19937;-78
2022/12/08 13:58:30;;;;;;;;;;;3.30;99.90;;;;;;4984517;28;20246;-78
2022/12/08 14:00:59;;;;;;;;;;;3.40;99.90;;;;;;5014809;28;19934;-78
2022/12/08 14:03:24;;;;;;;;;;;3.20;99.90;;;;;;5005393;28;19921;-79
2022/12/08 14:05:50;;;;;;;;;;;3.20;99.90;;;;;;5025769;28;19933;-81
2022/12/08 14:08:26;;;;;;;;;;;3.50;99.90;;;;;;4989535;28;19987;-78
2022/12/08 14:10:56;;;;;;;;;;;3.10;99.90;;;;;;5016810;28;19933;-81
2022/12/08 14:13:23;;;;;;;;;;;3.10;99.90;;;;;;5023856;28;19939;-80
2022/12/08 14:15:49;;;;;;;;;;;3.00;99.90;;;;;;5009056;28;20342;-78
2022/12/08 14:18:25;;;;;;;;;;;2.90;99.90;;;;;;5007313;28;20154;-79
2022/12/08 14:20:59;;;;;;;;;;;2.90;99.90;;;;;;5022638;28;19975;-78
2022/12/08 14:23:25;;;;;;;;;;;2.80;99.90;;;;;;5015176;28;20995;-80
2022/12/08 14:25:51;;;;;;;;;;;2.70;99.90;;;;;;5023279;28;19921;-78
2022/12/08 14:28:17;;;;;;;;;;;2.70;99.90;;;;;;5009479;28;19940;-78
2022/12/08 14:30:42;;;;;;;;;;;2.50;99.90;;;;;;5028040;28;20287;-81
2022/12/08 14:33:12;;;;;;;;;;;2.40;99.90;;;;;;5020373;28;20118;-81
2022/12/08 14:35:38;;;;;;;;;;;2.40;99.90;;;;;;5009340;28;20298;-78
2022/12/08 14:38:05;;;;;;;;;;;2.30;99.90;;;;;;5009688;28;19968;-81
2022/12/08 14:40:34;;;;;;;;;;;2.20;99.90;;;;;;5024430;28;20019;-79
2022/12/08 14:43:03;;;;;;;;;;;2.10;99.90;;;;;;5019283;28;19976;-79
2022/12/08 14:45:29;;;;;;;;;;;2.00;99.90;;;;;;5024239;28;19937;-78